Time;durP1;ratioP1;P1;durP2;ratioP2;P2;SDS_P1;SDS_P2;PMS_P1;PMS_P2;Temp;Humidity;BMP_temperature;BMP_pressure;BME280_temperature;BME280_humidity;BME280_pressure;Samples;Min_cycle;Max_cycle;Signal;HPM_P1;HPM_P2
2022/02/04 00:09:15;;;;;;;12.68;8.70;;;8.00;99.90;;;;;;5017289;28;20219;-91
2022/02/04 00:20:49;;;;;;;16.17;9.20;;;8.10;99.90;;;;;;5063863;28;20232;-91
2022/02/04 00:23:25;;;;;;;12.88;8.52;;;8.00;99.90;;;;;;5062077;28;20202;-91
2022/02/04 00:26:14;;;;;;;12.23;8.07;;;8.30;99.90;;;;;;5065156;28;20205;-91
2022/02/04 00:29:02;;;;;;;13.63;8.80;;;8.30;99.90;;;;;;5067358;28;20214;-91
2022/02/04 00:31:49;;;;;;;13.32;9.32;;;8.30;99.90;;;;;;5078019;28;20187;-90
2022/02/04 00:34:33;;;;;;;12.98;8.98;;;8.20;99.90;;;;;;5074853;28;20261;-91
2022/02/04 00:37:23;;;;;;;10.23;7.57;;;8.20;99.90;;;;;;5063389;28;20229;-92
2022/02/04 00:39:59;;;;;;;13.48;10.13;;;8.10;99.90;;;;;;5069938;28;20209;-89
2022/02/04 00:42:40;;;;;;;11.60;8.57;;;8.10;99.90;;;;;;5061542;28;20218;-90
2022/02/04 00:45:20;;;;;;;14.35;9.52;;;8.20;99.90;;;;;;5060904;28;20281;-91
2022/02/04 00:48:02;;;;;;;12.73;8.55;;;8.20;99.90;;;;;;5060681;28;20225;-92
2022/02/04 00:50:49;;;;;;;10.45;7.65;;;8.30;99.90;;;;;;5060658;28;20256;-91
2022/02/04 00:53:27;;;;;;;12.27;8.40;;;8.20;99.90;;;;;;5060003;28;20191;-91
2022/02/04 00:56:08;;;;;;;10.98;8.00;;;8.30;99.90;;;;;;5066683;28;20784;-90
2022/02/04 01:26:47;;;;;;;13.65;9.18;;;8.10;99.90;;;;;;5059081;28;20225;-89
2022/02/04 01:29:16;;;;;;;13.32;9.02;;;8.20;99.90;;;;;;5065992;28;20279;-92
2022/02/04 01:31:47;;;;;;;12.20;9.00;;;8.10;99.90;;;;;;5058221;28;20226;-91
2022/02/04 01:34:19;;;;;;;12.38;9.00;;;8.10;99.90;;;;;;5060209;28;20234;-91
2022/02/04 01:37:10;;;;;;;12.77;9.02;;;8.00;99.90;;;;;;5058855;28;20210;-91
2022/02/04 01:39:41;;;;;;;13.80;8.77;;;8.10;99.90;;;;;;5063954;28;20234;-90
2022/02/04 01:42:10;;;;;;;11.40;8.57;;;8.20;99.90;;;;;;5064456;28;20217;-91
2022/02/04 01:44:41;;;;;;;11.18;7.45;;;8.20;99.90;;;;;;5064617;28;20190;-91
2022/02/04 01:47:15;;;;;;;11.63;8.23;;;8.30;99.90;;;;;;5066685;28;20213;-91
2022/02/04 01:49:44;;;;;;;11.55;7.80;;;8.30;99.90;;;;;;5064602;28;20206;-91
2022/02/04 01:52:14;;;;;;;10.05;7.82;;;8.30;99.90;;;;;;5063157;28;20226;-92
2022/02/04 01:54:45;;;;;;;10.90;7.20;;;8.30;99.90;;;;;;5061817;28;20221;-91
2022/02/04 01:57:17;;;;;;;11.90;7.23;;;8.50;99.90;;;;;;5067732;28;20506;-91
2022/02/04 01:59:52;;;;;;;10.48;7.03;;;8.40;99.90;;;;;;5067492;28;20445;-91
2022/02/04 02:02:20;;;;;;;9.20;6.30;;;8.60;99.90;;;;;;5062286;28;20213;-90
2022/02/04 02:05:06;;;;;;;9.73;6.37;;;8.70;99.90;;;;;;5062674;28;20526;-91
2022/02/04 02:07:46;;;;;;;9.73;6.70;;;8.70;99.90;;;;;;5062677;28;20472;-91
2022/02/04 02:10:16;;;;;;;11.13;6.80;;;8.60;99.90;;;;;;5062466;28;20267;-90
2022/02/04 02:12:52;;;;;;;9.85;7.35;;;8.50;99.90;;;;;;5062674;28;20202;-91
2022/02/04 02:15:32;;;;;;;10.27;7.93;;;8.60;99.90;;;;;;5064960;28;20237;-91
2022/02/04 02:44:30;;;;;;;11.43;8.05;;;8.60;99.90;;;;;;5060784;28;20199;-91
2022/02/04 02:47:22;;;;;;;10.75;7.28;;;8.60;99.90;;;;;;5061147;28;20205;-91
2022/02/04 02:50:34;;;;;;;11.15;8.02;;;8.60;99.90;;;;;;5068910;28;20206;-91
2022/02/04 02:56:49;;;;;;;11.90;8.53;;;8.70;99.90;;;;;;5063650;28;20480;-91
2022/02/04 02:59:18;;;;;;;11.65;8.00;;;8.70;99.90;;;;;;5060597;28;20499;-89
2022/02/04 03:02:00;;;;;;;11.25;8.15;;;8.70;99.90;;;;;;5060845;28;20248;-92
2022/02/04 03:04:38;;;;;;;10.63;7.45;;;8.70;99.90;;;;;;5075031;28;20198;-91
2022/02/04 03:10:02;;;;;;;9.00;6.93;;;8.70;99.90;;;;;;5076350;28;20261;-92
2022/02/04 03:12:44;;;;;;;14.73;8.37;;;8.60;99.90;;;;;;5064732;28;20207;-90
2022/02/04 03:15:17;;;;;;;10.90;7.40;;;8.60;99.90;;;;;;5068343;28;20581;-91
2022/02/04 03:17:59;;;;;;;10.75;8.18;;;8.50;99.90;;;;;;5068382;28;20488;-91
2022/02/04 03:20:46;;;;;;;10.65;7.22;;;8.50;99.90;;;;;;5079650;28;20242;-91
2022/02/04 03:23:38;;;;;;;10.82;7.82;;;8.60;99.90;;;;;;5063536;28;20321;-92
2022/02/04 03:26:25;;;;;;;10.20;7.65;;;8.70;99.90;;;;;;5065951;28;20191;-89
2022/02/04 03:31:42;;;;;;;9.98;7.03;;;8.60;99.90;;;;;;4979825;28;20225;-88
2022/02/04 03:34:14;;;;;;;9.10;6.45;;;8.60;99.90;;;;;;4980365;28;20201;-88
2022/02/04 03:36:45;;;;;;;11.18;7.97;;;8.60;99.90;;;;;;4981253;28;20220;-88
2022/02/04 03:39:13;;;;;;;11.30;8.50;;;8.50;99.90;;;;;;4982581;28;20248;-88
2022/02/04 03:41:42;;;;;;;11.00;7.53;;;8.50;99.90;;;;;;4991344;28;20217;-88
2022/02/04 03:44:09;;;;;;;9.80;7.38;;;8.60;99.90;;;;;;4980590;28;20472;-87
2022/02/04 03:46:36;;;;;;;10.43;7.07;;;8.60;99.90;;;;;;4981534;28;20201;-86
2022/02/04 03:49:04;;;;;;;9.23;6.68;;;8.50;99.90;;;;;;4979780;28;20209;-86
2022/02/04 03:51:31;;;;;;;9.73;6.60;;;8.60;99.90;;;;;;4980988;28;20209;-87
2022/02/04 03:54:01;;;;;;;11.73;6.53;;;8.60;99.90;;;;;;4983194;28;20246;-86
2022/02/04 03:56:28;;;;;;;9.30;5.93;;;8.60;99.90;;;;;;4980598;28;20220;-86
2022/02/04 03:58:56;;;;;;;8.38;6.22;;;8.50;99.90;;;;;;4978924;28;20247;-86
2022/02/04 04:01:25;;;;;;;10.90;7.40;;;8.60;99.90;;;;;;4979729;28;20232;-86
2022/02/04 04:03:53;;;;;;;9.30;6.68;;;8.60;99.90;;;;;;4985896;28;20213;-87
2022/02/04 04:06:20;;;;;;;8.00;5.90;;;8.70;99.90;;;;;;4986727;28;20232;-86
2022/02/04 04:08:53;;;;;;;7.70;5.55;;;8.70;99.90;;;;;;4982816;28;20618;-86
2022/02/04 04:11:23;;;;;;;8.82;6.15;;;8.70;99.90;;;;;;4979452;28;20235;-86
2022/02/04 04:13:55;;;;;;;8.43;5.75;;;8.70;99.90;;;;;;4979553;28;20669;-86
2022/02/04 04:16:25;;;;;;;8.50;6.00;;;8.80;99.90;;;;;;4986443;28;20186;-86
2022/02/04 04:18:53;;;;;;;10.30;6.32;;;8.70;99.90;;;;;;4989810;28;20503;-87
2022/02/04 04:21:20;;;;;;;11.20;6.28;;;8.60;99.90;;;;;;4980258;28;20227;-87
2022/02/04 04:23:47;;;;;;;8.63;5.38;;;8.70;99.90;;;;;;4980082;28;20316;-87
2022/02/04 04:26:14;;;;;;;9.85;6.00;;;8.60;99.90;;;;;;4980919;28;20216;-86
2022/02/04 04:28:41;;;;;;;7.90;6.05;;;8.60;99.90;;;;;;4979847;28;20704;-86
2022/02/04 04:31:08;;;;;;;8.00;5.97;;;8.50;99.90;;;;;;4980816;28;20263;-86
2022/02/04 04:33:36;;;;;;;7.30;5.45;;;8.50;99.90;;;;;;4980251;28;20480;-87
2022/02/04 04:36:04;;;;;;;8.07;5.65;;;8.50;99.90;;;;;;4980647;28;20281;-87
2022/02/04 04:38:39;;;;;;;8.55;5.47;;;8.50;99.90;;;;;;4991615;28;20197;-87
2022/02/04 04:41:27;;;;;;;8.25;6.10;;;8.50;99.90;;;;;;4993378;28;20220;-87
2022/02/04 05:28:14;;;;;;;7.90;6.03;;;8.50;99.90;;;;;;4977792;28;20193;-87
2022/02/04 05:30:40;;;;;;;9.10;6.83;;;8.40;99.90;;;;;;4978066;28;20240;-87
2022/02/04 05:33:08;;;;;;;9.70;6.53;;;8.40;99.90;;;;;;4976846;28;20507;-87
2022/02/04 05:35:36;;;;;;;8.00;5.90;;;8.30;99.90;;;;;;4979130;28;20300;-87
2022/02/04 05:38:05;;;;;;;9.25;6.10;;;8.30;99.90;;;;;;4985036;28;20245;-87
2022/02/04 05:40:39;;;;;;;7.90;6.10;;;8.30;99.90;;;;;;4985646;28;20253;-87
2022/02/04 05:43:15;;;;;;;8.68;6.10;;;8.40;99.90;;;;;;4981720;28;20511;-87
2022/02/04 05:45:50;;;;;;;7.40;5.22;;;8.40;99.90;;;;;;4980876;28;20216;-87
2022/02/04 05:48:18;;;;;;;7.60;5.45;;;8.40;99.90;;;;;;4980509;28;20192;-87
2022/02/04 05:50:54;;;;;;;10.65;5.78;;;8.40;99.90;;;;;;4980265;28;20236;-87
2022/02/04 05:53:29;;;;;;;7.75;5.78;;;8.30;99.90;;;;;;4982589;28;20205;-87
2022/02/04 05:56:05;;;;;;;9.65;5.93;;;8.40;99.90;;;;;;4984247;28;20231;-87
2022/02/04 05:58:46;;;;;;;8.00;5.72;;;8.40;99.90;;;;;;4981445;28;20209;-87
2022/02/04 06:01:27;;;;;;;8.13;5.70;;;8.40;99.90;;;;;;4981416;28;20304;-87
2022/02/04 06:04:07;;;;;;;8.50;6.70;;;8.40;99.90;;;;;;4979652;28;20300;-87
2022/02/04 06:12:26;;;;;;;8.93;5.63;;;8.50;99.90;;;;;;4973266;28;20207;-87
2022/02/04 06:15:12;;;;;;;9.02;6.05;;;8.40;99.90;;;;;;4981487;28;20212;-87
2022/02/04 06:23:13;;;;;;;9.57;6.40;;;8.30;99.90;;;;;;4993557;28;20244;-87
2022/02/04 06:25:43;;;;;;;9.95;6.63;;;8.30;99.90;;;;;;4983781;28;20746;-87
2022/02/04 06:28:13;;;;;;;7.72;5.50;;;8.30;99.90;;;;;;4993326;28;20273;-87
2022/02/04 06:30:41;;;;;;;8.63;6.30;;;8.30;99.90;;;;;;4983301;28;20245;-88
2022/02/04 06:33:08;;;;;;;7.38;5.20;;;8.20;99.90;;;;;;4983482;28;20240;-87
2022/02/04 06:35:35;;;;;;;9.70;6.38;;;8.20;99.90;;;;;;4993571;28;20217;-86
2022/02/04 06:38:02;;;;;;;14.35;6.45;;;8.20;99.90;;;;;;4993046;28;20332;-86
2022/02/04 06:40:30;;;;;;;11.77;6.75;;;8.10;99.90;;;;;;4989044;28;20264;-88
2022/02/04 06:42:59;;;;;;;9.80;6.20;;;8.20;99.90;;;;;;4990970;28;20287;-86
2022/02/04 06:45:26;;;;;;;9.00;6.30;;;8.10;99.90;;;;;;4986175;28;20219;-87
2022/02/04 06:47:53;;;;;;;9.25;6.38;;;8.10;99.90;;;;;;4986493;28;20224;-87
2022/02/04 06:50:20;;;;;;;12.77;6.57;;;8.00;99.90;;;;;;4997887;28;20225;-87
2022/02/04 06:52:47;;;;;;;8.70;6.97;;;8.10;99.90;;;;;;4997035;28;20269;-88
2022/02/04 06:55:19;;;;;;;10.25;6.50;;;8.10;99.90;;;;;;4987387;28;20237;-87
2022/02/04 06:57:48;;;;;;;7.97;6.53;;;8.20;99.90;;;;;;4990584;28;20253;-88
2022/02/04 07:00:31;;;;;;;10.73;6.60;;;8.10;99.90;;;;;;4983157;28;20571;-88
2022/02/04 07:03:01;;;;;;;11.95;7.18;;;8.00;99.90;;;;;;4984171;28;20217;-88
2022/02/04 07:05:38;;;;;;;9.40;7.05;;;7.90;99.90;;;;;;4985533;28;20205;-87
2022/02/04 07:08:12;;;;;;;11.20;6.38;;;7.90;99.90;;;;;;4983785;28;20278;-87
2022/02/04 07:13:47;;;;;;;8.63;6.47;;;8.00;99.90;;;;;;4984103;28;20265;-87
2022/02/04 07:16:32;;;;;;;10.90;6.63;;;8.00;99.90;;;;;;4988463;28;20198;-87
2022/02/04 07:21:51;;;;;;;10.48;7.10;;;8.00;99.90;;;;;;4981645;28;20187;-86
2022/02/04 07:24:18;;;;;;;9.50;6.43;;;8.00;99.90;;;;;;4982855;28;20276;-87
2022/02/04 07:26:45;;;;;;;8.27;6.25;;;8.00;99.90;;;;;;4984662;28;20408;-86
2022/02/04 07:29:12;;;;;;;9.05;6.43;;;8.10;99.90;;;;;;4986594;28;20729;-87
2022/02/04 07:32:06;;;;;;;;;;;;;;;;;;;;;
2022/02/04 07:34:59;;;;;;;8.85;6.10;;;8.00;99.90;;;;;;4982997;28;20204;-85
2022/02/04 07:43:04;;;;;;;12.10;6.32;;;8.20;99.90;;;;;;4985272;28;20263;-86
2022/02/04 07:45:45;;;;;;;10.95;7.15;;;8.20;99.90;;;;;;4985541;28;20204;-86
2022/02/04 07:48:14;;;;;;;9.40;6.50;;;8.30;99.90;;;;;;4985064;28;20224;-86
2022/02/04 07:50:43;;;;;;;10.02;6.78;;;8.20;99.90;;;;;;4983620;28;20307;-87
2022/02/04 07:53:15;;;;;;;9.00;6.10;;;8.30;99.90;;;;;;4982475;28;20205;-87
2022/02/04 07:55:43;;;;;;;10.05;7.38;;;8.30;99.90;;;;;;4990682;28;20193;-87
2022/02/04 07:58:11;;;;;;;8.52;5.70;;;8.40;99.90;;;;;;4993793;28;20208;-87
2022/02/04 08:00:39;;;;;;;9.57;6.60;;;8.40;99.90;;;;;;4987026;28;20352;-87
2022/02/04 08:03:19;;;;;;;9.68;6.60;;;8.50;99.90;;;;;;4983753;28;20484;-86
2022/02/04 08:06:20;;;;;;;10.20;6.65;;;8.50;99.90;;;;;;4982648;28;20232;-86
2022/02/04 08:09:03;;;;;;;9.38;6.70;;;8.40;99.90;;;;;;4983964;28;20259;-86
2022/02/04 08:11:59;;;;;;;10.18;6.68;;;8.40;99.90;;;;;;4983635;28;20209;-87
2022/02/04 08:17:34;;;;;;;8.90;6.88;;;8.40;99.90;;;;;;4983210;28;20197;-86
2022/02/04 08:29:39;;;;;;;9.57;7.23;;;8.20;99.90;;;;;;4984742;28;20206;-86
2022/02/04 08:32:23;;;;;;;9.02;6.35;;;8.20;99.90;;;;;;4987412;28;20797;-86
2022/02/04 08:35:07;;;;;;;11.00;7.60;;;8.20;99.90;;;;;;4984394;28;20196;-87
2022/02/04 08:37:57;;;;;;;14.05;7.45;;;8.30;99.90;;;;;;4994688;28;20319;-86
2022/02/04 08:54:45;;;;;;;12.40;7.45;;;8.40;99.90;;;;;;4988149;28;20196;-87
2022/02/04 08:57:38;;;;;;;8.82;6.95;;;8.40;99.90;;;;;;4998430;28;20196;-87
2022/02/04 09:00:22;;;;;;;10.07;6.85;;;8.50;99.90;;;;;;4989042;28;20233;-87
2022/02/04 09:02:58;;;;;;;11.02;7.32;;;8.60;99.90;;;;;;4985886;28;20197;-87
2022/02/04 09:05:41;;;;;;;10.45;6.13;;;8.70;99.90;;;;;;4983352;28;20212;-87
2022/02/04 09:08:27;;;;;;;9.13;6.60;;;8.70;99.90;;;;;;4988204;28;20204;-87
2022/02/04 09:11:01;;;;;;;11.27;6.32;;;8.60;99.90;;;;;;4988990;28;20255;-87
2022/02/04 09:19:14;;;;;;;8.80;7.03;;;8.90;99.90;;;;;;4987573;28;20273;-87
2022/02/04 09:22:05;;;;;;;9.93;6.13;;;9.00;99.90;;;;;;4985188;28;20444;-87
2022/02/04 09:24:32;;;;;;;8.70;5.87;;;9.10;99.90;;;;;;4988012;28;20607;-86
2022/02/04 09:26:59;;;;;;;7.50;5.47;;;9.10;99.90;;;;;;4987830;28;20849;-86
2022/02/04 09:29:30;;;;;;;7.20;4.90;;;9.10;99.90;;;;;;4987347;28;20279;-87
2022/02/04 15:36:39;;;;;;;3.10;1.07;;;9.80;99.90;;;;;;5043225;28;20447;-87
2022/02/04 15:39:09;;;;;;;2.80;1.07;;;9.80;99.90;;;;;;5043997;28;20461;-86
2022/02/04 15:41:38;;;;;;;6.30;2.50;;;9.70;99.90;;;;;;5053154;28;20481;-88
2022/02/04 15:44:33;;;;;;;4.20;1.07;;;9.70;99.90;;;;;;5064100;28;20477;-88
2022/02/04 15:50:19;;;;;;;3.27;1.17;;;9.80;99.90;;;;;;5062622;28;20409;-87
2022/02/04 16:02:01;;;;;;;3.00;0.80;;;9.70;99.90;;;;;;5026835;28;20471;-86
2022/02/04 16:04:43;;;;;;;4.37;1.73;;;9.70;99.90;;;;;;5071393;28;20515;-86
2022/02/04 16:07:13;;;;;;;2.95;0.98;;;9.60;99.90;;;;;;5067832;28;20447;-88
2022/02/04 16:09:50;;;;;;;4.73;1.17;;;9.50;99.90;;;;;;5066046;28;20213;-86
2022/02/04 16:12:34;;;;;;;3.40;1.27;;;9.60;99.90;;;;;;5065709;28;20663;-88
2022/02/04 16:15:20;;;;;;;3.70;1.80;;;9.60;99.90;;;;;;5063259;28;20459;-87
2022/02/04 16:17:56;;;;;;;3.20;1.30;;;9.60;99.90;;;;;;5064154;28;20535;-88
2022/02/04 16:20:38;;;;;;;5.70;1.33;;;9.50;99.90;;;;;;5064310;28;20449;-88
2022/02/04 16:23:21;;;;;;;3.40;1.30;;;9.50;99.90;;;;;;5063138;28;20463;-88
2022/02/04 16:26:10;;;;;;;3.23;1.33;;;9.40;99.90;;;;;;5063173;28;20485;-86
2022/02/04 16:28:57;;;;;;;3.53;1.27;;;9.40;99.90;;;;;;5063991;28;20453;-87
2022/02/04 16:31:37;;;;;;;3.83;1.20;;;9.40;99.90;;;;;;5064468;28;20563;-89
2022/02/04 16:34:12;;;;;;;3.60;1.10;;;9.40;99.90;;;;;;5068963;28;20512;-87
2022/02/04 16:36:49;;;;;;;5.33;2.30;;;9.40;99.90;;;;;;5069904;28;20436;-87
2022/02/04 16:39:36;;;;;;;5.00;1.40;;;9.40;99.90;;;;;;5066047;28;20460;-88
2022/02/04 16:45:23;;;;;;;3.50;1.40;;;9.20;99.90;;;;;;5067510;28;20842;-87
2022/02/04 16:47:55;;;;;;;4.73;1.53;;;9.30;99.90;;;;;;5063406;28;20416;-87
2022/02/04 16:53:18;;;;;;;3.50;1.40;;;9.40;99.90;;;;;;5051873;22;20478;-88
2022/02/04 16:55:46;;;;;;;3.10;1.23;;;9.30;99.90;;;;;;5046430;28;20513;-88
2022/02/04 16:58:14;;;;;;;3.00;0.90;;;9.40;99.90;;;;;;5045250;28;20451;-87
2022/02/04 17:00:43;;;;;;;3.67;1.30;;;9.40;99.90;;;;;;5044811;28;20461;-88
2022/02/04 17:03:11;;;;;;;5.70;2.17;;;9.40;99.90;;;;;;5044070;28;20473;-87
2022/02/04 17:05:49;;;;;;;3.40;1.30;;;9.40;99.90;;;;;;5043616;28;20489;-87
2022/02/04 17:08:23;;;;;;;4.10;1.30;;;9.40;99.90;;;;;;5044940;28;20450;-89
2022/02/04 17:10:54;;;;;;;4.07;1.80;;;9.40;99.90;;;;;;5043042;28;20533;-88
2022/02/04 17:13:23;;;;;;;2.97;1.30;;;9.40;99.90;;;;;;5043526;28;20450;-88
2022/02/04 17:15:51;;;;;;;4.50;1.27;;;9.40;99.90;;;;;;5043506;28;20560;-87
2022/02/04 17:18:23;;;;;;;4.40;1.03;;;9.40;99.90;;;;;;5043347;28;20564;-88
2022/02/04 17:20:56;;;;;;;3.17;1.17;;;9.40;99.90;;;;;;5044318;28;20434;-88
2022/02/04 17:23:29;;;;;;;3.80;1.07;;;9.50;99.90;;;;;;5046637;28;20445;-87
2022/02/04 17:26:01;;;;;;;5.53;1.30;;;9.40;99.90;;;;;;5044838;28;20481;-87
2022/02/04 17:28:30;;;;;;;3.87;1.50;;;9.30;99.90;;;;;;5044222;28;20294;-87
2022/02/04 17:31:01;;;;;;;3.57;1.43;;;9.30;99.90;;;;;;5053601;28;20460;-87
2022/02/04 17:33:29;;;;;;;3.50;1.67;;;9.40;99.90;;;;;;5051159;28;20458;-87
2022/02/04 17:35:57;;;;;;;3.40;1.33;;;9.30;99.90;;;;;;5047088;28;20298;-87
2022/02/04 17:38:24;;;;;;;3.93;1.80;;;9.30;99.90;;;;;;5046062;28;20457;-88
2022/02/04 17:40:52;;;;;;;4.25;1.60;;;9.30;99.90;;;;;;5046981;28;20435;-88
2022/02/04 17:43:22;;;;;;;3.53;1.67;;;9.30;99.90;;;;;;5046241;28;20211;-87
2022/02/04 17:45:52;;;;;;;3.17;1.30;;;9.30;99.90;;;;;;5046051;28;20478;-87
2022/02/04 17:48:24;;;;;;;3.20;1.30;;;9.30;99.90;;;;;;5046380;28;20208;-87
2022/02/04 17:51:00;;;;;;;3.50;1.20;;;9.40;99.90;;;;;;5046231;28;20452;-89
2022/02/04 17:53:33;;;;;;;4.50;2.00;;;9.40;99.90;;;;;;5046925;28;20538;-88
2022/02/04 17:56:04;;;;;;;5.03;1.70;;;9.40;99.90;;;;;;5046497;28;20431;-89
2022/02/04 17:58:42;;;;;;;2.80;1.17;;;9.50;99.90;;;;;;5052295;28;20512;-86
2022/02/04 18:01:21;;;;;;;4.43;1.70;;;9.40;99.90;;;;;;5050085;28;20493;-87
2022/02/04 18:07:07;;;;;;;4.05;1.67;;;9.30;99.90;;;;;;5058577;28;20474;-88
2022/02/04 18:09:37;;;;;;;3.87;2.07;;;9.30;99.90;;;;;;5058020;28;20205;-89
2022/02/04 18:12:09;;;;;;;3.70;1.27;;;9.30;99.90;;;;;;5055912;28;20521;-87
2022/02/04 18:14:38;;;;;;;4.03;1.60;;;9.30;99.90;;;;;;5049746;28;20446;-88
2022/02/04 18:17:17;;;;;;;3.33;1.60;;;9.20;99.90;;;;;;5050234;28;20450;-88
2022/02/04 18:19:45;;;;;;;5.27;1.50;;;9.20;99.90;;;;;;5055210;28;20450;-88
2022/02/04 18:22:12;;;;;;;5.77;3.00;;;9.20;99.90;;;;;;5053024;28;20474;-86
2022/02/04 18:24:50;;;;;;;4.45;2.38;;;9.30;99.90;;;;;;5052036;28;20492;-88
2022/02/04 18:27:23;;;;;;;5.18;2.50;;;9.20;99.90;;;;;;5051097;28;20213;-89
2022/02/04 18:29:57;;;;;;;3.97;2.30;;;9.20;99.90;;;;;;5049307;28;20261;-88
2022/02/04 18:32:25;;;;;;;4.50;2.33;;;9.20;99.90;;;;;;5049827;28;20227;-89
2022/02/04 18:34:55;;;;;;;4.10;1.83;;;9.20;99.90;;;;;;5049943;28;20448;-87
2022/02/04 18:37:32;;;;;;;3.13;1.53;;;9.20;99.90;;;;;;5048860;28;20427;-87
2022/02/04 18:43:10;;;;;;;4.20;2.00;;;9.20;99.90;;;;;;5040708;28;20457;-87
2022/02/04 18:45:44;;;;;;;4.30;1.77;;;9.20;99.90;;;;;;5045936;28;20477;-87
2022/02/04 18:48:18;;;;;;;5.50;2.70;;;9.20;99.90;;;;;;5047301;28;20524;-87
2022/02/04 18:51:00;;;;;;;4.30;1.90;;;9.20;99.90;;;;;;5047915;28;20420;-88
2022/02/04 18:53:37;;;;;;;3.92;1.75;;;9.20;99.90;;;;;;5046655;28;20511;-88
2022/02/04 18:56:19;;;;;;;10.52;2.88;;;9.20;99.90;;;;;;5046801;28;20191;-87
2022/02/04 18:58:48;;;;;;;7.65;3.15;;;9.10;99.90;;;;;;5046783;28;20604;-88
2022/02/04 19:01:18;;;;;;;4.63;2.00;;;9.00;99.90;;;;;;5046484;28;20273;-89
2022/02/04 19:03:51;;;;;;;4.00;1.93;;;9.00;99.90;;;;;;5046763;28;20442;-88
2022/02/04 19:06:22;;;;;;;6.00;2.45;;;9.00;99.90;;;;;;5047702;28;20523;-88
2022/02/04 19:08:54;;;;;;;9.48;4.63;;;9.00;99.90;;;;;;5050987;28;20191;-88
2022/02/04 19:11:26;;;;;;;4.85;2.47;;;9.00;99.90;;;;;;5050610;28;20234;-89
2022/02/04 19:14:01;;;;;;;5.65;3.67;;;9.00;99.90;;;;;;5051971;28;20230;-88
2022/02/04 19:16:50;;;;;;;3.60;1.60;;;8.90;99.90;;;;;;5049774;28;20218;-86
2022/02/04 19:19:25;;;;;;;4.13;1.60;;;8.90;99.90;;;;;;5049220;28;20464;-87
2022/02/04 19:22:00;;;;;;;4.82;2.22;;;8.90;99.90;;;;;;5051799;28;20222;-87
2022/02/04 19:24:32;;;;;;;6.25;2.70;;;8.90;99.90;;;;;;5049037;28;20256;-87
2022/02/04 19:26:59;;;;;;;5.30;2.15;;;8.80;99.90;;;;;;5050938;28;20217;-88
2022/02/04 19:29:26;;;;;;;3.95;1.70;;;8.80;99.90;;;;;;5045936;28;20211;-88
2022/02/04 19:31:55;;;;;;;4.07;2.13;;;8.70;99.90;;;;;;5046744;28;20253;-87
2022/02/04 19:34:26;;;;;;;3.95;1.98;;;8.70;99.90;;;;;;5044276;28;20191;-87
2022/02/04 19:37:04;;;;;;;3.97;1.50;;;8.80;99.90;;;;;;5044695;28;20217;-89
2022/02/04 19:39:31;;;;;;;4.65;1.73;;;8.80;99.90;;;;;;5043740;28;20448;-89
2022/02/04 19:42:03;;;;;;;3.60;1.63;;;8.90;99.90;;;;;;5053600;28;20219;-86
2022/02/04 19:44:32;;;;;;;3.75;1.80;;;9.00;99.90;;;;;;5052408;28;20214;-87
2022/02/04 19:47:06;;;;;;;5.53;2.22;;;8.90;99.90;;;;;;5047919;28;20222;-88
2022/02/04 19:49:43;;;;;;;4.30;2.00;;;8.90;99.90;;;;;;5043848;28;20289;-87
2022/02/04 19:52:18;;;;;;;5.07;2.30;;;9.00;99.90;;;;;;5041977;28;20591;-87
2022/02/04 20:17:39;;;;;;;5.78;1.90;;;9.10;99.90;;;;;;5043988;28;20769;-87
2022/02/04 20:25:31;;;;;;;4.28;1.52;;;9.30;99.90;;;;;;5044258;28;20464;-87
2022/02/04 20:28:05;;;;;;;3.20;1.30;;;9.40;99.90;;;;;;5045148;28;20242;-88
2022/02/04 20:30:32;;;;;;;2.93;1.23;;;9.50;99.90;;;;;;5048286;28;20255;-88
2022/02/04 20:33:09;;;;;;;3.50;1.50;;;9.50;99.90;;;;;;5049874;28;20485;-86
2022/02/04 20:35:42;;;;;;;3.03;1.20;;;9.50;99.90;;;;;;5044507;28;20191;-86
2022/02/04 20:38:11;;;;;;;3.87;1.37;;;9.50;99.90;;;;;;5045902;28;20419;-88
2022/02/04 20:40:42;;;;;;;3.60;1.30;;;9.50;99.90;;;;;;5044674;28;20443;-87
2022/02/04 20:43:14;;;;;;;3.05;1.27;;;9.50;99.90;;;;;;5044865;28;20487;-87
2022/02/04 20:45:41;;;;;;;2.63;1.07;;;9.40;99.90;;;;;;5048141;28;20273;-87
2022/02/04 20:48:08;;;;;;;3.83;1.40;;;9.40;99.90;;;;;;5051976;28;20433;-88
2022/02/04 20:50:42;;;;;;;3.23;1.40;;;9.50;99.90;;;;;;5045029;28;20476;-87
2022/02/04 20:53:09;;;;;;;3.70;1.53;;;9.50;99.90;;;;;;5042438;28;20482;-87
2022/02/04 20:55:38;;;;;;;3.20;1.30;;;9.50;99.90;;;;;;5049656;28;20453;-87
2022/02/04 20:58:06;;;;;;;4.20;2.10;;;9.50;99.90;;;;;;5047873;28;20448;-86
2022/02/04 21:00:34;;;;;;;5.93;1.30;;;9.50;99.90;;;;;;5046566;28;20449;-88
2022/02/04 21:03:04;;;;;;;3.95;1.90;;;9.60;99.90;;;;;;5044080;28;20486;-86
2022/02/04 21:05:40;;;;;;;5.60;1.53;;;9.60;99.90;;;;;;5045765;28;20258;-88
2022/02/04 21:13:46;;;;;;;3.37;1.40;;;9.70;99.90;;;;;;5048028;28;20456;-86
2022/02/04 21:16:13;;;;;;;7.93;2.63;;;9.70;99.90;;;;;;5051754;28;20497;-86
2022/02/04 21:18:42;;;;;;;4.90;1.40;;;9.70;99.90;;;;;;5054573;28;20513;-87
2022/02/04 21:21:11;;;;;;;4.60;1.60;;;9.70;99.90;;;;;;5051847;28;20465;-88
2022/02/04 21:23:40;;;;;;;5.40;1.57;;;9.80;99.90;;;;;;5049307;28;20454;-87
2022/02/04 21:26:07;;;;;;;3.30;1.60;;;9.80;99.90;;;;;;5050070;28;20460;-86
2022/02/04 21:28:36;;;;;;;3.40;1.30;;;9.70;99.90;;;;;;5056335;28;20439;-87
2022/02/04 21:31:07;;;;;;;4.67;2.10;;;9.70;99.90;;;;;;5053481;28;20447;-87
